sensor_id;sensor_type;location;lat;lon;timestamp;P1;durP1;ratioP1;P2;durP2;ratioP2
568;SDS011;269;48.884;9.192;2022-12-05T00:01:12;24.05;;;16.25;;
568;SDS011;269;48.884;9.192;2022-12-05T00:03:44;22.48;;;15.05;;
568;SDS011;269;48.884;9.192;2022-12-05T00:06:11;22.20;;;14.90;;
568;SDS011;269;48.884;9.192;2022-12-05T00:08:38;19.92;;;14.40;;
568;SDS011;269;48.884;9.192;2022-12-05T00:11:09;19.42;;;14.43;;
568;SDS011;269;48.884;9.192;2022-12-05T00:13:38;21.55;;;14.23;;
568;SDS011;269;48.884;9.192;2022-12-05T00:16:07;18.50;;;13.82;;
568;SDS011;269;48.884;9.192;2022-12-05T00:18:35;17.90;;;12.95;;
568;SDS011;269;48.884;9.192;2022-12-05T00:21:04;15.30;;;12.50;;
568;SDS011;269;48.884;9.192;2022-12-05T00:23:33;17.35;;;13.88;;
568;SDS011;269;48.884;9.192;2022-12-05T00:26:00;15.90;;;13.15;;
568;SDS011;269;48.884;9.192;2022-12-05T00:28:29;15.65;;;12.13;;
568;SDS011;269;48.884;9.192;2022-12-05T00:31:00;17.67;;;13.25;;
568;SDS011;269;48.884;9.192;2022-12-05T00:33:28;16.25;;;11.75;;
568;SDS011;269;48.884;9.192;2022-12-05T00:35:55;16.77;;;12.50;;
568;SDS011;269;48.884;9.192;2022-12-05T00:38:28;15.35;;;11.88;;
568;SDS011;269;48.884;9.192;2022-12-05T00:40:55;18.05;;;14.18;;
568;SDS011;269;48.884;9.192;2022-12-05T00:43:27;17.40;;;12.68;;
568;SDS011;269;48.884;9.192;2022-12-05T00:45:54;18.42;;;13.60;;
568;SDS011;269;48.884;9.192;2022-12-05T00:48:21;17.52;;;12.98;;
568;SDS011;269;48.884;9.192;2022-12-05T00:50:49;18.52;;;13.20;;
568;SDS011;269;48.884;9.192;2022-12-05T00:53:16;17.27;;;13.15;;
568;SDS011;269;48.884;9.192;2022-12-05T00:55:44;15.77;;;12.68;;
568;SDS011;269;48.884;9.192;2022-12-05T00:58:12;18.65;;;13.27;;
568;SDS011;269;48.884;9.192;2022-12-05T01:00:39;18.95;;;12.23;;
568;SDS011;269;48.884;9.192;2022-12-05T01:03:06;18.60;;;12.40;;
568;SDS011;269;48.884;9.192;2022-12-05T01:05:34;17.45;;;12.98;;
568;SDS011;269;48.884;9.192;2022-12-05T01:08:01;21.27;;;14.50;;
568;SDS011;269;48.884;9.192;2022-12-05T01:10:28;23.75;;;14.75;;
568;SDS011;269;48.884;9.192;2022-12-05T01:12:57;20.45;;;13.68;;
568;SDS011;269;48.884;9.192;2022-12-05T01:15:24;22.27;;;14.60;;
568;SDS011;269;48.884;9.192;2022-12-05T01:17:51;22.55;;;14.98;;
568;SDS011;269;48.884;9.192;2022-12-05T01:20:18;22.05;;;15.18;;
568;SDS011;269;48.884;9.192;2022-12-05T01:22:46;22.70;;;15.13;;
568;SDS011;269;48.884;9.192;2022-12-05T01:25:13;21.58;;;14.00;;
568;SDS011;269;48.884;9.192;2022-12-05T01:27:40;19.98;;;13.20;;
568;SDS011;269;48.884;9.192;2022-12-05T01:30:10;22.02;;;15.45;;
568;SDS011;269;48.884;9.192;2022-12-05T01:32:38;20.90;;;14.30;;
568;SDS011;269;48.884;9.192;2022-12-05T01:35:05;21.90;;;15.68;;
568;SDS011;269;48.884;9.192;2022-12-05T01:37:33;20.00;;;14.52;;
568;SDS011;269;48.884;9.192;2022-12-05T01:40:00;20.40;;;15.25;;
568;SDS011;269;48.884;9.192;2022-12-05T01:42:29;18.40;;;14.20;;
568;SDS011;269;48.884;9.192;2022-12-05T01:44:59;20.20;;;13.95;;
568;SDS011;269;48.884;9.192;2022-12-05T01:47:29;22.48;;;15.77;;
568;SDS011;269;48.884;9.192;2022-12-05T01:50:05;17.45;;;12.82;;
568;SDS011;269;48.884;9.192;2022-12-05T01:52:33;19.67;;;14.70;;
568;SDS011;269;48.884;9.192;2022-12-05T01:55:03;18.88;;;14.20;;
568;SDS011;269;48.884;9.192;2022-12-05T01:57:34;17.60;;;13.27;;
568;SDS011;269;48.884;9.192;2022-12-05T02:00:04;21.40;;;14.48;;
568;SDS011;269;48.884;9.192;2022-12-05T02:02:37;18.23;;;13.68;;
568;SDS011;269;48.884;9.192;2022-12-05T02:05:06;19.42;;;13.15;;
568;SDS011;269;48.884;9.192;2022-12-05T02:07:38;21.10;;;13.70;;
568;SDS011;269;48.884;9.192;2022-12-05T02:10:07;19.85;;;13.82;;
568;SDS011;269;48.884;9.192;2022-12-05T02:12:35;20.15;;;14.63;;
568;SDS011;269;48.884;9.192;2022-12-05T02:15:14;19.08;;;13.10;;
568;SDS011;269;48.884;9.192;2022-12-05T02:17:54;16.60;;;12.23;;
568;SDS011;269;48.884;9.192;2022-12-05T02:20:34;22.45;;;13.93;;
568;SDS011;269;48.884;9.192;2022-12-05T02:23:15;21.48;;;14.45;;
568;SDS011;269;48.884;9.192;2022-12-05T02:25:57;18.43;;;12.97;;
568;SDS011;269;48.884;9.192;2022-12-05T02:28:48;19.30;;;13.43;;
568;SDS011;269;48.884;9.192;2022-12-05T02:31:52;18.58;;;12.93;;
568;SDS011;269;48.884;9.192;2022-12-05T02:34:28;18.85;;;13.35;;
568;SDS011;269;48.884;9.192;2022-12-05T02:37:01;17.40;;;13.23;;
568;SDS011;269;48.884;9.192;2022-12-05T02:39:37;16.15;;;12.30;;
568;SDS011;269;48.884;9.192;2022-12-05T02:42:11;19.33;;;13.35;;
568;SDS011;269;48.884;9.192;2022-12-05T02:44:42;19.25;;;13.48;;
568;SDS011;269;48.884;9.192;2022-12-05T02:47:16;18.30;;;12.88;;
568;SDS011;269;48.884;9.192;2022-12-05T02:49:46;15.40;;;12.43;;
568;SDS011;269;48.884;9.192;2022-12-05T02:52:16;17.90;;;12.80;;
568;SDS011;269;48.884;9.192;2022-12-05T02:54:45;17.33;;;12.93;;
568;SDS011;269;48.884;9.192;2022-12-05T02:57:14;16.70;;;11.85;;
568;SDS011;269;48.884;9.192;2022-12-05T02:59:43;18.52;;;12.52;;
568;SDS011;269;48.884;9.192;2022-12-05T03:02:22;16.73;;;12.25;;
568;SDS011;269;48.884;9.192;2022-12-05T03:04:51;16.08;;;12.20;;
568;SDS011;269;48.884;9.192;2022-12-05T03:07:21;17.60;;;12.80;;
568;SDS011;269;48.884;9.192;2022-12-05T03:09:52;19.05;;;12.45;;
568;SDS011;269;48.884;9.192;2022-12-05T03:12:24;16.85;;;11.95;;
568;SDS011;269;48.884;9.192;2022-12-05T03:15:02;14.38;;;10.63;;
568;SDS011;269;48.884;9.192;2022-12-05T03:17:36;17.67;;;11.13;;
568;SDS011;269;48.884;9.192;2022-12-05T03:20:10;15.52;;;10.85;;
568;SDS011;269;48.884;9.192;2022-12-05T03:22:44;16.23;;;11.48;;
568;SDS011;269;48.884;9.192;2022-12-05T03:25:17;13.68;;;9.90;;
568;SDS011;269;48.884;9.192;2022-12-05T03:27:48;15.20;;;10.77;;
568;SDS011;269;48.884;9.192;2022-12-05T03:30:20;16.20;;;11.75;;
568;SDS011;269;48.884;9.192;2022-12-05T03:32:51;15.20;;;10.90;;
568;SDS011;269;48.884;9.192;2022-12-05T03:35:23;15.05;;;11.30;;
568;SDS011;269;48.884;9.192;2022-12-05T03:37:58;15.98;;;11.85;;
568;SDS011;269;48.884;9.192;2022-12-05T03:40:31;13.40;;;10.82;;
568;SDS011;269;48.884;9.192;2022-12-05T03:43:04;14.88;;;11.18;;
568;SDS011;269;48.884;9.192;2022-12-05T03:45:38;12.95;;;10.35;;
568;SDS011;269;48.884;9.192;2022-12-05T03:48:14;14.73;;;11.00;;
568;SDS011;269;48.884;9.192;2022-12-05T03:50:45;13.25;;;10.05;;
568;SDS011;269;48.884;9.192;2022-12-05T03:53:16;13.13;;;10.43;;
568;SDS011;269;48.884;9.192;2022-12-05T03:55:45;15.00;;;11.02;;
568;SDS011;269;48.884;9.192;2022-12-05T03:58:22;14.15;;;10.82;;
568;SDS011;269;48.884;9.192;2022-12-05T04:00:52;14.30;;;11.00;;
568;SDS011;269;48.884;9.192;2022-12-05T04:03:25;13.70;;;10.23;;
568;SDS011;269;48.884;9.192;2022-12-05T04:06:03;12.93;;;9.70;;
568;SDS011;269;48.884;9.192;2022-12-05T04:08:38;13.65;;;10.73;;
568;SDS011;269;48.884;9.192;2022-12-05T04:11:09;14.85;;;11.65;;
568;SDS011;269;48.884;9.192;2022-12-05T04:13:42;12.43;;;10.25;;
568;SDS011;269;48.884;9.192;2022-12-05T04:16:16;14.02;;;10.80;;
568;SDS011;269;48.884;9.192;2022-12-05T04:19:06;12.20;;;10.15;;
568;SDS011;269;48.884;9.192;2022-12-05T04:21:39;14.77;;;10.45;;
568;SDS011;269;48.884;9.192;2022-12-05T04:24:11;17.00;;;11.07;;
568;SDS011;269;48.884;9.192;2022-12-05T04:27:02;14.43;;;11.20;;
568;SDS011;269;48.884;9.192;2022-12-05T04:29:36;14.70;;;11.32;;
568;SDS011;269;48.884;9.192;2022-12-05T04:32:10;14.23;;;10.75;;
568;SDS011;269;48.884;9.192;2022-12-05T04:34:41;15.68;;;12.32;;
568;SDS011;269;48.884;9.192;2022-12-05T04:37:16;13.60;;;11.50;;
568;SDS011;269;48.884;9.192;2022-12-05T04:39:52;12.45;;;11.15;;
568;SDS011;269;48.884;9.192;2022-12-05T04:42:23;14.70;;;11.88;;
568;SDS011;269;48.884;9.192;2022-12-05T04:44:55;15.07;;;10.93;;
568;SDS011;269;48.884;9.192;2022-12-05T04:47:28;13.80;;;10.43;;
568;SDS011;269;48.884;9.192;2022-12-05T04:50:03;14.70;;;10.55;;
568;SDS011;269;48.884;9.192;2022-12-05T04:52:33;14.18;;;10.30;;
568;SDS011;269;48.884;9.192;2022-12-05T04:55:02;13.82;;;10.70;;
568;SDS011;269;48.884;9.192;2022-12-05T04:57:35;16.55;;;11.45;;
568;SDS011;269;48.884;9.192;2022-12-05T05:00:08;15.52;;;11.18;;
568;SDS011;269;48.884;9.192;2022-12-05T05:02:37;12.88;;;11.00;;
568;SDS011;269;48.884;9.192;2022-12-05T05:05:10;14.88;;;10.32;;
568;SDS011;269;48.884;9.192;2022-12-05T05:07:42;15.48;;;11.82;;
568;SDS011;269;48.884;9.192;2022-12-05T05:10:11;14.77;;;10.88;;
568;SDS011;269;48.884;9.192;2022-12-05T05:12:41;16.73;;;10.80;;
568;SDS011;269;48.884;9.192;2022-12-05T05:15:08;16.00;;;11.80;;
568;SDS011;269;48.884;9.192;2022-12-05T05:17:36;14.45;;;10.98;;
568;SDS011;269;48.884;9.192;2022-12-05T05:20:04;15.68;;;11.52;;
568;SDS011;269;48.884;9.192;2022-12-05T05:22:48;14.90;;;11.30;;
568;SDS011;269;48.884;9.192;2022-12-05T05:25:16;14.63;;;10.93;;
568;SDS011;269;48.884;9.192;2022-12-05T05:27:46;14.70;;;10.95;;
568;SDS011;269;48.884;9.192;2022-12-05T05:30:16;15.88;;;11.40;;
568;SDS011;269;48.884;9.192;2022-12-05T05:32:44;19.05;;;12.18;;
568;SDS011;269;48.884;9.192;2022-12-05T05:35:11;13.15;;;10.18;;
568;SDS011;269;48.884;9.192;2022-12-05T05:37:39;14.80;;;11.70;;
568;SDS011;269;48.884;9.192;2022-12-05T05:40:11;14.43;;;11.25;;
568;SDS011;269;48.884;9.192;2022-12-05T05:42:43;17.10;;;11.25;;
568;SDS011;269;48.884;9.192;2022-12-05T05:45:11;13.25;;;10.50;;
568;SDS011;269;48.884;9.192;2022-12-05T05:47:39;16.05;;;12.07;;
568;SDS011;269;48.884;9.192;2022-12-05T05:50:07;18.00;;;12.95;;
568;SDS011;269;48.884;9.192;2022-12-05T05:52:35;15.50;;;11.25;;
568;SDS011;269;48.884;9.192;2022-12-05T05:55:03;14.48;;;11.00;;
568;SDS011;269;48.884;9.192;2022-12-05T05:57:33;17.35;;;12.30;;
568;SDS011;269;48.884;9.192;2022-12-05T06:00:01;16.90;;;12.93;;
568;SDS011;269;48.884;9.192;2022-12-05T06:02:30;18.67;;;12.20;;
568;SDS011;269;48.884;9.192;2022-12-05T06:04:59;17.25;;;12.30;;
568;SDS011;269;48.884;9.192;2022-12-05T06:07:26;18.65;;;13.85;;
568;SDS011;269;48.884;9.192;2022-12-05T06:09:53;19.75;;;13.70;;
568;SDS011;269;48.884;9.192;2022-12-05T06:12:21;19.98;;;13.05;;
568;SDS011;269;48.884;9.192;2022-12-05T06:14:49;18.48;;;13.85;;
568;SDS011;269;48.884;9.192;2022-12-05T06:17:17;17.70;;;12.57;;
568;SDS011;269;48.884;9.192;2022-12-05T06:19:45;15.70;;;12.13;;
568;SDS011;269;48.884;9.192;2022-12-05T06:22:12;16.88;;;12.38;;
568;SDS011;269;48.884;9.192;2022-12-05T06:24:39;17.65;;;13.93;;
568;SDS011;269;48.884;9.192;2022-12-05T06:27:09;15.25;;;12.10;;
568;SDS011;269;48.884;9.192;2022-12-05T06:29:36;14.85;;;12.07;;
568;SDS011;269;48.884;9.192;2022-12-05T06:32:05;17.52;;;11.85;;
568;SDS011;269;48.884;9.192;2022-12-05T06:34:33;15.70;;;12.73;;
568;SDS011;269;48.884;9.192;2022-12-05T06:37:00;15.88;;;11.30;;
568;SDS011;269;48.884;9.192;2022-12-05T06:39:28;19.15;;;13.02;;
568;SDS011;269;48.884;9.192;2022-12-05T06:41:55;18.65;;;13.13;;
568;SDS011;269;48.884;9.192;2022-12-05T06:44:23;16.65;;;12.18;;
568;SDS011;269;48.884;9.192;2022-12-05T06:46:51;17.05;;;12.85;;
568;SDS011;269;48.884;9.192;2022-12-05T08:09:25;17.48;;;12.50;;
568;SDS011;269;48.884;9.192;2022-12-05T08:11:53;19.25;;;13.18;;
568;SDS011;269;48.884;9.192;2022-12-05T08:14:21;17.38;;;13.30;;
568;SDS011;269;48.884;9.192;2022-12-05T08:16:49;16.85;;;13.05;;
568;SDS011;269;48.884;9.192;2022-12-05T08:19:17;19.40;;;13.15;;
568;SDS011;269;48.884;9.192;2022-12-05T08:21:44;17.15;;;12.57;;
568;SDS011;269;48.884;9.192;2022-12-05T08:24:12;16.98;;;13.10;;
568;SDS011;269;48.884;9.192;2022-12-05T08:26:41;19.92;;;13.45;;
568;SDS011;269;48.884;9.192;2022-12-05T08:29:09;19.60;;;13.68;;
568;SDS011;269;48.884;9.192;2022-12-05T08:31:38;17.65;;;13.43;;
568;SDS011;269;48.884;9.192;2022-12-05T08:34:09;18.83;;;13.70;;
568;SDS011;269;48.884;9.192;2022-12-05T08:36:38;16.35;;;13.60;;
568;SDS011;269;48.884;9.192;2022-12-05T08:39:07;18.88;;;14.02;;
568;SDS011;269;48.884;9.192;2022-12-05T08:41:45;18.13;;;13.23;;
568;SDS011;269;48.884;9.192;2022-12-05T08:44:13;17.88;;;13.07;;
568;SDS011;269;48.884;9.192;2022-12-05T08:46:42;15.30;;;12.52;;
568;SDS011;269;48.884;9.192;2022-12-05T08:49:12;17.65;;;13.43;;
568;SDS011;269;48.884;9.192;2022-12-05T08:51:41;16.05;;;12.77;;
568;SDS011;269;48.884;9.192;2022-12-05T08:54:09;16.98;;;12.77;;
568;SDS011;269;48.884;9.192;2022-12-05T08:56:36;17.48;;;13.82;;
568;SDS011;269;48.884;9.192;2022-12-05T08:59:06;16.42;;;12.98;;
568;SDS011;269;48.884;9.192;2022-12-05T09:01:33;17.35;;;13.93;;
568;SDS011;269;48.884;9.192;2022-12-05T09:04:03;15.07;;;11.95;;
568;SDS011;269;48.884;9.192;2022-12-05T09:06:30;15.52;;;12.93;;
568;SDS011;269;48.884;9.192;2022-12-05T09:08:59;15.57;;;12.52;;
568;SDS011;269;48.884;9.192;2022-12-05T09:11:29;15.63;;;12.10;;
568;SDS011;269;48.884;9.192;2022-12-05T09:13:58;13.10;;;11.48;;
568;SDS011;269;48.884;9.192;2022-12-05T09:16:32;15.82;;;12.75;;
568;SDS011;269;48.884;9.192;2022-12-05T09:19:00;14.73;;;11.82;;
568;SDS011;269;48.884;9.192;2022-12-05T09:21:28;15.25;;;12.38;;
568;SDS011;269;48.884;9.192;2022-12-05T09:23:56;15.05;;;10.93;;
568;SDS011;269;48.884;9.192;2022-12-05T09:26:25;13.18;;;11.77;;
568;SDS011;269;48.884;9.192;2022-12-05T09:28:55;15.10;;;12.27;;
568;SDS011;269;48.884;9.192;2022-12-05T09:31:23;13.98;;;11.95;;
568;SDS011;269;48.884;9.192;2022-12-05T09:33:54;13.10;;;11.68;;
568;SDS011;269;48.884;9.192;2022-12-05T09:36:22;14.60;;;12.63;;
568;SDS011;269;48.884;9.192;2022-12-05T09:38:50;15.40;;;11.52;;
568;SDS011;269;48.884;9.192;2022-12-05T09:41:23;14.00;;;11.70;;
568;SDS011;269;48.884;9.192;2022-12-05T09:44:21;12.43;;;10.85;;
568;SDS011;269;48.884;9.192;2022-12-05T09:46:55;12.35;;;10.35;;
568;SDS011;269;48.884;9.192;2022-12-05T09:49:27;12.77;;;10.85;;
568;SDS011;269;48.884;9.192;2022-12-05T09:51:57;15.20;;;12.02;;
568;SDS011;269;48.884;9.192;2022-12-05T09:54:26;13.45;;;11.43;;
568;SDS011;269;48.884;9.192;2022-12-05T09:56:54;14.05;;;11.52;;
568;SDS011;269;48.884;9.192;2022-12-05T09:59:22;13.30;;;11.10;;
568;SDS011;269;48.884;9.192;2022-12-05T10:01:51;12.45;;;10.65;;
568;SDS011;269;48.884;9.192;2022-12-05T10:04:32;12.55;;;11.13;;
568;SDS011;269;48.884;9.192;2022-12-05T10:07:18;12.88;;;11.13;;
568;SDS011;269;48.884;9.192;2022-12-05T10:09:59;11.85;;;10.65;;
568;SDS011;269;48.884;9.192;2022-12-05T10:12:41;11.63;;;10.07;;
568;SDS011;269;48.884;9.192;2022-12-05T12:32:57;10.10;;;9.10;;
568;SDS011;269;48.884;9.192;2022-12-05T12:35:31;8.45;;;7.65;;
568;SDS011;269;48.884;9.192;2022-12-05T12:38:16;8.27;;;7.57;;
568;SDS011;269;48.884;9.192;2022-12-05T12:41:00;8.63;;;7.82;;
568;SDS011;269;48.884;9.192;2022-12-05T12:43:39;10.18;;;9.18;;
568;SDS011;269;48.884;9.192;2022-12-05T12:46:19;8.55;;;7.60;;
568;SDS011;269;48.884;9.192;2022-12-05T12:49:02;8.52;;;7.72;;
568;SDS011;269;48.884;9.192;2022-12-05T12:51:43;9.43;;;8.63;;
568;SDS011;269;48.884;9.192;2022-12-05T12:54:18;9.07;;;8.20;;
568;SDS011;269;48.884;9.192;2022-12-05T12:56:56;8.85;;;7.95;;
568;SDS011;269;48.884;9.192;2022-12-05T12:59:39;9.00;;;8.05;;
568;SDS011;269;48.884;9.192;2022-12-05T13:02:21;8.32;;;7.53;;
568;SDS011;269;48.884;9.192;2022-12-05T13:05:02;8.73;;;7.93;;
568;SDS011;269;48.884;9.192;2022-12-05T13:07:35;9.65;;;8.65;;
568;SDS011;269;48.884;9.192;2022-12-05T13:10:10;9.15;;;8.25;;
568;SDS011;269;48.884;9.192;2022-12-05T13:12:41;8.65;;;7.85;;
568;SDS011;269;48.884;9.192;2022-12-05T13:15:12;8.70;;;7.90;;
568;SDS011;269;48.884;9.192;2022-12-05T13:17:42;9.65;;;8.75;;
568;SDS011;269;48.884;9.192;2022-12-05T13:20:15;9.20;;;8.30;;
568;SDS011;269;48.884;9.192;2022-12-05T13:22:45;9.55;;;8.65;;
568;SDS011;269;48.884;9.192;2022-12-05T13:25:14;9.57;;;8.57;;
568;SDS011;269;48.884;9.192;2022-12-05T13:27:51;10.35;;;9.38;;
568;SDS011;269;48.884;9.192;2022-12-05T13:30:21;9.85;;;8.85;;
568;SDS011;269;48.884;9.192;2022-12-05T13:32:54;12.35;;;9.85;;
568;SDS011;269;48.884;9.192;2022-12-05T13:35:27;13.02;;;10.35;;
568;SDS011;269;48.884;9.192;2022-12-05T13:38:20;12.45;;;11.25;;
568;SDS011;269;48.884;9.192;2022-12-05T13:41:07;14.40;;;12.90;;
568;SDS011;269;48.884;9.192;2022-12-05T13:43:52;13.15;;;11.77;;
568;SDS011;269;48.884;9.192;2022-12-05T13:46:25;12.20;;;10.90;;
568;SDS011;269;48.884;9.192;2022-12-05T13:48:57;11.63;;;10.52;;
568;SDS011;269;48.884;9.192;2022-12-05T13:51:32;10.88;;;9.77;;
568;SDS011;269;48.884;9.192;2022-12-05T13:54:02;11.48;;;10.38;;
568;SDS011;269;48.884;9.192;2022-12-05T13:56:49;11.27;;;10.13;;
568;SDS011;269;48.884;9.192;2022-12-05T14:11:14;10.23;;;9.23;;
568;SDS011;269;48.884;9.192;2022-12-05T14:13:43;11.63;;;10.43;;
568;SDS011;269;48.884;9.192;2022-12-05T14:25:41;12.10;;;10.80;;
568;SDS011;269;48.884;9.192;2022-12-05T14:28:27;11.50;;;10.30;;
568;SDS011;269;48.884;9.192;2022-12-05T14:31:07;11.73;;;10.52;;
568;SDS011;269;48.884;9.192;2022-12-05T14:34:01;11.13;;;10.02;;
568;SDS011;269;48.884;9.192;2022-12-05T14:36:50;11.43;;;10.23;;
568;SDS011;269;48.884;9.192;2022-12-05T14:39:27;10.65;;;9.55;;
568;SDS011;269;48.884;9.192;2022-12-05T14:41:59;11.50;;;10.30;;
568;SDS011;269;48.884;9.192;2022-12-05T14:44:29;11.15;;;10.05;;
568;SDS011;269;48.884;9.192;2022-12-05T14:46:58;11.50;;;10.30;;
568;SDS011;269;48.884;9.192;2022-12-05T14:49:34;11.00;;;9.90;;
568;SDS011;269;48.884;9.192;2022-12-05T14:52:22;11.65;;;10.50;;
568;SDS011;269;48.884;9.192;2022-12-05T14:54:52;12.68;;;11.38;;
568;SDS011;269;48.884;9.192;2022-12-05T14:57:24;11.70;;;10.60;;
568;SDS011;269;48.884;9.192;2022-12-05T14:59:55;11.05;;;9.95;;
568;SDS011;269;48.884;9.192;2022-12-05T15:02:25;10.68;;;9.57;;
568;SDS011;269;48.884;9.192;2022-12-05T15:04:57;11.55;;;10.25;;
568;SDS011;269;48.884;9.192;2022-12-05T15:07:29;10.70;;;9.70;;
568;SDS011;269;48.884;9.192;2022-12-05T15:10:01;11.32;;;10.15;;
568;SDS011;269;48.884;9.192;2022-12-05T15:12:32;11.18;;;10.18;;
568;SDS011;269;48.884;9.192;2022-12-05T15:15:10;12.15;;;10.90;;
568;SDS011;269;48.884;9.192;2022-12-05T15:17:46;11.85;;;10.75;;
568;SDS011;269;48.884;9.192;2022-12-05T15:20:20;11.60;;;10.50;;
568;SDS011;269;48.884;9.192;2022-12-05T15:22:55;10.82;;;9.70;;
568;SDS011;269;48.884;9.192;2022-12-05T15:25:27;11.75;;;10.57;;
568;SDS011;269;48.884;9.192;2022-12-05T15:28:02;12.27;;;9.65;;
568;SDS011;269;48.884;9.192;2022-12-05T15:30:33;10.70;;;9.60;;
568;SDS011;269;48.884;9.192;2022-12-05T15:33:03;11.20;;;10.20;;
568;SDS011;269;48.884;9.192;2022-12-05T15:35:37;11.65;;;10.48;;
568;SDS011;269;48.884;9.192;2022-12-05T15:38:06;10.63;;;9.52;;
568;SDS011;269;48.884;9.192;2022-12-05T15:40:44;11.07;;;10.07;;
568;SDS011;269;48.884;9.192;2022-12-05T15:43:20;11.93;;;10.10;;
568;SDS011;269;48.884;9.192;2022-12-05T15:46:06;10.80;;;9.80;;
568;SDS011;269;48.884;9.192;2022-12-05T15:48:48;11.07;;;9.95;;
568;SDS011;269;48.884;9.192;2022-12-05T15:51:15;11.43;;;10.25;;
568;SDS011;269;48.884;9.192;2022-12-05T15:53:44;10.88;;;9.88;;
568;SDS011;269;48.884;9.192;2022-12-05T15:56:16;12.10;;;10.90;;
568;SDS011;269;48.884;9.192;2022-12-05T15:58:48;13.98;;;12.55;;
568;SDS011;269;48.884;9.192;2022-12-05T16:01:19;13.35;;;11.40;;
568;SDS011;269;48.884;9.192;2022-12-05T16:03:48;14.85;;;11.82;;
568;SDS011;269;48.884;9.192;2022-12-05T16:06:21;13.57;;;11.98;;
568;SDS011;269;48.884;9.192;2022-12-05T16:08:51;13.55;;;12.25;;
568;SDS011;269;48.884;9.192;2022-12-05T16:11:19;14.23;;;12.73;;
568;SDS011;269;48.884;9.192;2022-12-05T16:13:48;14.68;;;13.13;;
568;SDS011;269;48.884;9.192;2022-12-05T16:16:19;16.10;;;14.48;;
568;SDS011;269;48.884;9.192;2022-12-05T16:18:49;16.55;;;14.85;;
568;SDS011;269;48.884;9.192;2022-12-05T16:21:31;17.63;;;14.93;;
568;SDS011;269;48.884;9.192;2022-12-05T16:24:04;17.58;;;14.38;;
568;SDS011;269;48.884;9.192;2022-12-05T16:26:37;18.20;;;15.77;;
568;SDS011;269;48.884;9.192;2022-12-05T16:29:05;19.85;;;15.77;;
568;SDS011;269;48.884;9.192;2022-12-05T16:31:53;14.77;;;13.27;;
568;SDS011;269;48.884;9.192;2022-12-05T16:34:22;16.98;;;15.30;;
568;SDS011;269;48.884;9.192;2022-12-05T16:36:51;15.60;;;14.05;;
568;SDS011;269;48.884;9.192;2022-12-05T16:39:20;14.80;;;12.70;;
568;SDS011;269;48.884;9.192;2022-12-05T16:41:48;15.82;;;13.45;;
568;SDS011;269;48.884;9.192;2022-12-05T16:50:30;16.40;;;13.90;;
568;SDS011;269;48.884;9.192;2022-12-05T16:56:03;16.65;;;14.07;;
568;SDS011;269;48.884;9.192;2022-12-05T16:58:33;14.88;;;13.27;;
568;SDS011;269;48.884;9.192;2022-12-05T17:01:01;16.48;;;13.35;;
568;SDS011;269;48.884;9.192;2022-12-05T17:03:30;13.90;;;12.23;;
568;SDS011;269;48.884;9.192;2022-12-05T17:06:00;16.70;;;13.15;;
568;SDS011;269;48.884;9.192;2022-12-05T17:08:28;15.80;;;14.13;;
568;SDS011;269;48.884;9.192;2022-12-05T17:10:55;15.15;;;13.55;;
568;SDS011;269;48.884;9.192;2022-12-05T17:13:26;16.25;;;14.57;;
568;SDS011;269;48.884;9.192;2022-12-05T17:15:53;14.40;;;13.00;;
568;SDS011;269;48.884;9.192;2022-12-05T17:18:20;14.15;;;12.68;;
568;SDS011;269;48.884;9.192;2022-12-05T17:20:48;14.15;;;12.77;;
568;SDS011;269;48.884;9.192;2022-12-05T17:23:18;14.52;;;12.77;;
568;SDS011;269;48.884;9.192;2022-12-05T17:25:46;17.45;;;14.82;;
568;SDS011;269;48.884;9.192;2022-12-05T17:28:16;15.45;;;13.38;;
568;SDS011;269;48.884;9.192;2022-12-05T17:30:44;15.43;;;13.82;;
568;SDS011;269;48.884;9.192;2022-12-05T17:33:11;15.20;;;13.65;;
568;SDS011;269;48.884;9.192;2022-12-05T17:35:41;14.90;;;13.00;;
568;SDS011;269;48.884;9.192;2022-12-05T17:38:09;15.82;;;13.63;;
568;SDS011;269;48.884;9.192;2022-12-05T17:40:38;14.18;;;12.02;;
568;SDS011;269;48.884;9.192;2022-12-05T17:43:06;15.15;;;13.25;;
568;SDS011;269;48.884;9.192;2022-12-05T17:45:36;15.27;;;13.50;;
568;SDS011;269;48.884;9.192;2022-12-05T17:48:03;15.50;;;13.20;;
568;SDS011;269;48.884;9.192;2022-12-05T17:50:31;17.20;;;13.68;;
568;SDS011;269;48.884;9.192;2022-12-05T17:52:58;14.88;;;12.13;;
568;SDS011;269;48.884;9.192;2022-12-05T17:55:26;14.52;;;13.00;;
568;SDS011;269;48.884;9.192;2022-12-05T17:57:55;14.52;;;12.70;;
568;SDS011;269;48.884;9.192;2022-12-05T18:00:23;14.25;;;12.73;;
568;SDS011;269;48.884;9.192;2022-12-05T18:02:50;17.35;;;14.95;;
568;SDS011;269;48.884;9.192;2022-12-05T18:05:18;16.00;;;14.30;;
568;SDS011;269;48.884;9.192;2022-12-05T18:07:46;14.48;;;12.95;;
568;SDS011;269;48.884;9.192;2022-12-05T18:10:14;16.25;;;13.70;;
568;SDS011;269;48.884;9.192;2022-12-05T18:12:44;14.80;;;13.00;;
568;SDS011;269;48.884;9.192;2022-12-05T18:15:13;15.30;;;13.70;;
568;SDS011;269;48.884;9.192;2022-12-05T18:17:41;15.90;;;12.90;;
568;SDS011;269;48.884;9.192;2022-12-05T18:20:11;16.15;;;14.45;;
568;SDS011;269;48.884;9.192;2022-12-05T18:22:40;15.85;;;14.25;;
568;SDS011;269;48.884;9.192;2022-12-05T18:25:08;14.35;;;12.88;;
568;SDS011;269;48.884;9.192;2022-12-05T18:27:36;14.70;;;13.20;;
568;SDS011;269;48.884;9.192;2022-12-05T18:30:04;15.43;;;13.18;;
568;SDS011;269;48.884;9.192;2022-12-05T18:32:36;15.35;;;13.27;;
568;SDS011;269;48.884;9.192;2022-12-05T18:35:04;15.82;;;13.90;;
568;SDS011;269;48.884;9.192;2022-12-05T18:37:34;14.00;;;12.60;;
568;SDS011;269;48.884;9.192;2022-12-05T18:40:01;14.13;;;12.70;;
568;SDS011;269;48.884;9.192;2022-12-05T18:42:29;14.27;;;12.88;;
568;SDS011;269;48.884;9.192;2022-12-05T18:44:56;14.77;;;13.27;;
568;SDS011;269;48.884;9.192;2022-12-05T18:47:23;14.50;;;12.63;;
568;SDS011;269;48.884;9.192;2022-12-05T18:49:58;14.82;;;13.32;;
568;SDS011;269;48.884;9.192;2022-12-05T18:52:27;15.00;;;13.43;;
568;SDS011;269;48.884;9.192;2022-12-05T18:54:55;15.35;;;13.75;;
568;SDS011;269;48.884;9.192;2022-12-05T18:57:23;15.80;;;14.20;;
568;SDS011;269;48.884;9.192;2022-12-05T18:59:50;15.23;;;13.63;;
568;SDS011;269;48.884;9.192;2022-12-05T19:02:17;16.95;;;14.63;;
568;SDS011;269;48.884;9.192;2022-12-05T19:04:44;17.80;;;15.25;;
568;SDS011;269;48.884;9.192;2022-12-05T19:07:14;18.75;;;15.30;;
568;SDS011;269;48.884;9.192;2022-12-05T19:09:42;18.02;;;14.55;;
568;SDS011;269;48.884;9.192;2022-12-05T19:12:09;18.25;;;14.48;;
568;SDS011;269;48.884;9.192;2022-12-05T19:14:36;15.02;;;13.43;;
568;SDS011;269;48.884;9.192;2022-12-05T19:17:04;17.15;;;15.32;;
568;SDS011;269;48.884;9.192;2022-12-05T19:19:31;19.05;;;16.58;;
568;SDS011;269;48.884;9.192;2022-12-05T19:21:58;18.02;;;16.20;;
568;SDS011;269;48.884;9.192;2022-12-05T19:24:28;17.17;;;15.43;;
568;SDS011;269;48.884;9.192;2022-12-05T19:26:55;18.75;;;16.85;;
568;SDS011;269;48.884;9.192;2022-12-05T19:29:22;17.95;;;15.05;;
568;SDS011;269;48.884;9.192;2022-12-05T19:31:49;18.00;;;16.10;;
568;SDS011;269;48.884;9.192;2022-12-05T19:34:19;17.90;;;16.10;;
568;SDS011;269;48.884;9.192;2022-12-05T19:36:48;15.55;;;14.00;;
568;SDS011;269;48.884;9.192;2022-12-05T19:39:16;17.05;;;15.38;;
568;SDS011;269;48.884;9.192;2022-12-05T19:41:46;18.95;;;16.88;;
568;SDS011;269;48.884;9.192;2022-12-05T19:44:13;18.10;;;16.13;;
568;SDS011;269;48.884;9.192;2022-12-05T19:46:41;18.45;;;16.55;;
568;SDS011;269;48.884;9.192;2022-12-05T19:49:11;16.02;;;14.43;;
568;SDS011;269;48.884;9.192;2022-12-05T19:51:39;16.23;;;14.52;;